createdAt,value
2023-02-14T00:00:03.722Z,103003.28
2023-02-14T00:02:31.656Z,103005.03
2023-02-14T00:04:59.639Z,103005.91
2023-02-14T00:07:28.974Z,103009.44
2023-02-14T00:09:56.873Z,103014.75
2023-02-14T00:12:24.759Z,103020.94
2023-02-14T00:15:10.337Z,103015.63
2023-02-14T00:17:38.196Z,103014.75
2023-02-14T00:20:07.432Z,103002.38
2023-02-14T00:22:36.759Z,103003.25
2023-02-14T00:25:04.692Z,103005.03
2023-02-14T00:27:32.596Z,102997.94
2023-02-14T00:30:02.680Z,103003.25
2023-02-14T00:32:30.621Z,103000.59
2023-02-14T00:34:58.467Z,103001.47
2023-02-14T00:37:26.446Z,103001.47
2023-02-14T00:39:55.706Z,102996.16
2023-02-14T00:42:23.579Z,102997.94
2023-02-14T00:44:51.471Z,102997.06
2023-02-14T00:47:19.337Z,102990.88
2023-02-14T00:49:47.205Z,102998.84
2023-02-14T00:52:15.092Z,102994.41
2023-02-14T00:54:43.051Z,102999.69
2023-02-14T00:57:12.282Z,102997.06
2023-02-14T00:59:40.173Z,102990.00
2023-02-14T01:02:08.090Z,102993.53
2023-02-14T01:04:36.055Z,102992.63
2023-02-14T01:07:03.948Z,102990.88
2023-02-14T01:09:31.852Z,102982.03
2023-02-14T01:11:59.765Z,102972.28
2023-02-14T01:14:29.086Z,102984.72
2023-02-14T01:16:56.966Z,102980.28
2023-02-14T01:19:24.838Z,102975.88
2023-02-14T01:21:52.776Z,102980.31
2023-02-14T01:24:20.672Z,102977.66
2023-02-14T01:26:48.551Z,102970.56
2023-02-14T01:29:16.449Z,102982.94
2023-02-14T01:31:48.362Z,102975.91
2023-02-14T01:34:16.360Z,102970.59
2023-02-14T01:36:44.209Z,102979.44
2023-02-14T01:39:13.707Z,102977.66
2023-02-14T01:41:42.506Z,102975.88
2023-02-14T01:44:43.575Z,102984.72
2023-02-14T01:47:12.852Z,102981.16
2023-02-14T01:49:42.570Z,102973.22
2023-02-14T01:52:12.539Z,102987.38
2023-02-14T01:54:42.299Z,102984.72
2023-02-14T01:57:11.122Z,102990.00
2023-02-14T01:59:42.077Z,102999.75
2023-02-14T02:02:09.965Z,103004.16
2023-02-14T02:04:40.553Z,103000.63
2023-02-14T02:07:10.554Z,102994.44
2023-02-14T02:09:41.895Z,102999.75
2023-02-14T02:12:09.925Z,102998.84
2023-02-14T02:14:37.803Z,102992.66
2023-02-14T02:17:13.503Z,102969.69
2023-02-14T02:20:20.121Z,102992.66
2023-02-14T02:23:17.643Z,102965.28
2023-02-14T02:26:04.718Z,102966.16
2023-02-14T02:28:54.618Z,102966.16
2023-02-14T02:31:32.533Z,102972.34
2023-02-14T02:34:21.279Z,102961.72
2023-02-14T02:37:03.747Z,102956.44
2023-02-14T02:39:40.395Z,102961.75
2023-02-14T02:42:12.029Z,102961.72
2023-02-14T02:44:44.331Z,102967.94
2023-02-14T02:47:17.705Z,102968.81
2023-02-14T02:50:05.013Z,102958.19
2023-02-14T02:52:56.216Z,102965.28
2023-02-14T02:55:27.147Z,102968.81
2023-02-14T02:57:54.024Z,102966.16
2023-02-14T03:00:22.630Z,102959.97
2023-02-14T03:03:08.735Z,102961.72
2023-02-14T03:05:36.746Z,102963.50
2023-02-14T03:08:06.198Z,102966.16
2023-02-14T03:10:35.921Z,102955.56
2023-02-14T03:13:35.739Z,102948.50
2023-02-14T03:16:34.053Z,102962.59
2023-02-14T03:19:23.328Z,102955.53
2023-02-14T03:21:54.668Z,102968.78
2023-02-14T03:24:26.935Z,102965.25
2023-02-14T03:26:58.828Z,102967.00
2023-02-14T03:29:27.943Z,102960.81
2023-02-14T03:31:59.332Z,102960.81
2023-02-14T03:34:30.841Z,102954.66
2023-02-14T03:37:00.311Z,102958.19
2023-02-14T03:39:30.879Z,102956.41
2023-02-14T03:42:06.067Z,102952.91
2023-02-14T03:44:34.591Z,102942.28
2023-02-14T03:47:03.772Z,102952.00
2023-02-14T03:49:32.893Z,102944.06
2023-02-14T03:52:00.898Z,102949.34
2023-02-14T03:54:30.280Z,102946.69
2023-02-14T03:57:00.521Z,102929.91
2023-02-14T03:59:28.523Z,102953.78
2023-02-14T04:01:57.602Z,102959.06
2023-02-14T04:04:26.378Z,102955.53
2023-02-14T04:06:54.300Z,102954.66
2023-02-14T04:09:22.201Z,102945.81
2023-02-14T04:11:52.490Z,102947.59
2023-02-14T04:14:20.368Z,102944.06
2023-02-14T04:17:05.690Z,102941.41
2023-02-14T04:19:33.563Z,102938.75
2023-02-14T04:22:01.480Z,102942.25
2023-02-14T04:24:29.390Z,102920.19
2023-02-14T04:27:11.128Z,102939.59
2023-02-14T04:29:39.797Z,102935.19
2023-02-14T04:32:08.492Z,102935.16
2023-02-14T04:34:36.416Z,102927.22
2023-02-14T04:37:04.743Z,102934.31
2023-02-14T04:39:32.607Z,102917.50
2023-02-14T04:42:01.909Z,102928.06
2023-02-14T04:44:29.777Z,102936.91
2023-02-14T04:46:57.666Z,102931.59
2023-02-14T04:49:25.576Z,102931.53
2023-02-14T04:51:53.419Z,102930.66
2023-02-14T04:54:21.430Z,102937.72
2023-02-14T04:56:49.360Z,102935.94
2023-02-14T04:59:18.691Z,102933.28
2023-02-14T05:01:46.617Z,102936.81
2023-02-14T05:04:14.526Z,102933.25
2023-02-14T05:06:42.481Z,102933.25
2023-02-14T05:09:10.352Z,102942.94
2023-02-14T05:11:38.289Z,102941.16
2023-02-14T05:14:06.162Z,102939.41
2023-02-14T05:16:35.499Z,102949.13
2023-02-14T05:19:03.395Z,102942.94
2023-02-14T05:21:33.167Z,102935.84
2023-02-14T05:24:01.065Z,102941.16
2023-02-14T05:26:29.254Z,102941.16
2023-02-14T05:28:57.222Z,102944.69
2023-02-14T05:31:25.216Z,102925.25
2023-02-14T05:33:54.507Z,102930.50
2023-02-14T05:36:22.374Z,102924.31
2023-02-14T05:38:50.291Z,102928.69
2023-02-14T05:41:18.161Z,102924.25
2023-02-14T05:43:46.028Z,102914.53
2023-02-14T05:46:13.932Z,102933.13
2023-02-14T05:48:41.917Z,102938.41
2023-02-14T05:51:11.339Z,102927.78
2023-02-14T05:53:39.328Z,102934.84
2023-02-14T05:56:07.616Z,102920.69
2023-02-14T05:58:35.501Z,102921.59
2023-02-14T06:01:03.378Z,102926.91
2023-02-14T06:03:31.266Z,102920.69
2023-02-14T06:05:59.219Z,102914.53
2023-02-14T06:08:28.469Z,102913.59
2023-02-14T06:10:56.359Z,102915.38
2023-02-14T06:13:24.920Z,102928.66
2023-02-14T06:15:52.828Z,102918.91
2023-02-14T06:18:20.714Z,102918.88
2023-02-14T06:20:48.610Z,102930.34
2023-02-14T06:23:16.523Z,102924.13
2023-02-14T06:25:45.776Z,102918.78
2023-02-14T06:28:13.637Z,102923.16
2023-02-14T06:30:41.752Z,102922.22
2023-02-14T06:33:09.859Z,102930.16
2023-02-14T06:35:37.728Z,102930.13
2023-02-14T06:38:05.658Z,102927.41
2023-02-14T06:40:33.538Z,102934.47
2023-02-14T06:43:02.757Z,102924.69
2023-02-14T06:45:30.667Z,102923.75
2023-02-14T06:48:00.016Z,102929.09
2023-02-14T06:50:27.933Z,102931.72
2023-02-14T06:52:55.995Z,102929.06
2023-02-14T06:55:23.992Z,102933.47
2023-02-14T06:57:51.856Z,102934.34
2023-02-14T07:00:22.426Z,102935.19
2023-02-14T07:02:50.332Z,102937.84
2023-02-14T07:05:19.066Z,102940.47
2023-02-14T07:07:47.125Z,102946.69
2023-02-14T07:10:15.080Z,102941.38
2023-02-14T07:12:42.989Z,102941.41
2023-02-14T07:15:11.666Z,102948.50
2023-02-14T07:17:41.012Z,102952.03
2023-02-14T07:20:09.550Z,102952.06
2023-02-14T07:22:37.830Z,102943.25
2023-02-14T07:25:06.261Z,102955.63
2023-02-14T07:27:34.207Z,102953.84
2023-02-14T07:30:02.201Z,102959.19
2023-02-14T07:32:30.143Z,102963.59
2023-02-14T07:34:59.504Z,102965.41
2023-02-14T07:37:27.359Z,102947.69
2023-02-14T07:39:55.487Z,102946.81
2023-02-14T07:42:23.384Z,102940.66
2023-02-14T07:44:51.294Z,102951.31
2023-02-14T07:47:19.181Z,102950.41
2023-02-14T07:49:47.040Z,102956.59
2023-02-14T07:52:16.440Z,102954.84
2023-02-14T07:54:44.317Z,102959.28
2023-02-14T07:57:12.195Z,102958.44
2023-02-14T07:59:40.125Z,102957.53
2023-02-14T08:02:07.992Z,102965.53
2023-02-14T08:04:35.886Z,102964.63
2023-02-14T08:07:03.782Z,102959.31
2023-02-14T08:09:33.172Z,102956.63
2023-02-14T08:12:18.358Z,102954.84
2023-02-14T08:14:46.253Z,102961.06
2023-02-14T08:17:14.482Z,102958.41
2023-02-14T08:19:42.395Z,102954.81
2023-02-14T08:22:10.265Z,102956.53
2023-02-14T08:24:39.512Z,102951.16
2023-02-14T08:27:07.437Z,102960.03
2023-02-14T08:29:35.344Z,102962.63
2023-02-14T08:32:03.370Z,102967.84
2023-02-14T08:34:31.382Z,102958.88
2023-02-14T08:36:59.254Z,102936.78
2023-02-14T08:39:27.153Z,102949.84
2023-02-14T08:41:56.501Z,102946.28
2023-02-14T08:44:24.611Z,102948.81
2023-02-14T08:46:52.601Z,102950.56
2023-02-14T08:49:20.552Z,102944.31
2023-02-14T08:51:48.487Z,102938.03
2023-02-14T08:54:16.546Z,102923.00
2023-02-14T08:56:44.495Z,102933.47
2023-02-14T08:59:14.190Z,102936.97
2023-02-14T09:01:42.064Z,102929.81
2023-02-14T09:04:10.076Z,102928.03
2023-02-14T09:06:38.664Z,102917.44
2023-02-14T09:09:06.588Z,102922.69
2023-02-14T09:11:34.833Z,102931.56
2023-02-14T09:14:02.781Z,102929.78
2023-02-14T09:16:32.212Z,102915.66
2023-02-14T09:19:00.298Z,102920.03
2023-02-14T09:21:28.623Z,102919.13
2023-02-14T09:23:56.552Z,102920.88
2023-02-14T09:26:24.440Z,102915.50
2023-02-14T09:28:52.399Z,102919.91
2023-02-14T09:31:20.978Z,102924.34
2023-02-14T09:34:08.052Z,102923.44
2023-02-14T09:36:35.930Z,102931.44
2023-02-14T09:39:03.837Z,102926.94
2023-02-14T09:41:53.081Z,102927.75
2023-02-14T09:44:25.482Z,102913.50
2023-02-14T09:46:54.699Z,102913.50
2023-02-14T09:49:29.626Z,102917.00
2023-02-14T09:51:57.875Z,102916.94
2023-02-14T09:54:27.508Z,102919.56
2023-02-14T09:56:57.363Z,102924.78
2023-02-14T09:59:27.458Z,102937.06
2023-02-14T10:01:59.116Z,102920.16
2023-02-14T10:04:30.931Z,102918.22
2023-02-14T10:07:01.759Z,102918.97
2023-02-14T10:09:38.012Z,102917.97
2023-02-14T10:12:06.206Z,102916.94
2023-02-14T10:14:40.350Z,102918.59
2023-02-14T10:17:09.892Z,102913.97
2023-02-14T10:19:40.530Z,102915.66
2023-02-14T10:22:10.555Z,102911.94
2023-02-14T10:24:39.667Z,102910.91
2023-02-14T10:27:12.742Z,102921.38
2023-02-14T10:29:40.654Z,102912.25
2023-02-14T10:32:13.156Z,102922.78
2023-02-14T10:34:43.391Z,102917.22
2023-02-14T10:37:20.985Z,102909.88
2023-02-14T10:39:57.328Z,102909.75
2023-02-14T10:42:27.523Z,102904.13
2023-02-14T10:44:57.738Z,102902.22
2023-02-14T10:47:32.480Z,102906.59
2023-02-14T10:50:06.620Z,102894.81
2023-02-14T10:52:38.270Z,102901.84
2023-02-14T10:55:13.903Z,102898.91
2023-02-14T10:57:44.717Z,102891.63
2023-02-14T11:00:18.921Z,102902.00
2023-02-14T11:02:47.620Z,102916.56
2023-02-14T11:05:24.979Z,102914.16
2023-02-14T11:07:53.033Z,102900.16
2023-02-14T11:10:21.679Z,102913.53
2023-02-14T11:12:49.615Z,102911.16
2023-02-14T11:15:22.933Z,102911.19
2023-02-14T11:17:50.859Z,102913.94
2023-02-14T11:20:25.684Z,102901.59
2023-02-14T11:22:53.670Z,102905.13
2023-02-14T11:25:23.290Z,102913.25
2023-02-14T11:27:52.453Z,102910.69
2023-02-14T11:30:22.557Z,102897.28
2023-02-14T11:32:55.141Z,102900.75
2023-02-14T11:35:27.105Z,102881.53
2023-02-14T11:37:55.695Z,102899.69
2023-02-14T11:40:34.296Z,102893.41
2023-02-14T11:43:19.821Z,102895.13
2023-02-14T11:45:48.483Z,102883.94
2023-02-14T11:48:24.824Z,102885.25
2023-02-14T11:51:03.116Z,102872.28
2023-02-14T11:53:35.028Z,102845.97
2023-02-14T11:56:02.914Z,102863.19
2023-02-14T11:58:35.355Z,102861.56
2023-02-14T12:01:03.281Z,102871.53
2023-02-14T12:03:33.940Z,102861.63
2023-02-14T12:06:03.321Z,102864.31
2023-02-14T12:08:46.904Z,102859.47
2023-02-14T12:11:24.431Z,102846.22
2023-02-14T12:13:55.792Z,102844.56
2023-02-14T12:16:28.041Z,102842.84
2023-02-14T12:18:57.480Z,102847.28
2023-02-14T12:21:41.041Z,102831.44
2023-02-14T12:24:17.506Z,102832.13
2023-02-14T12:26:47.904Z,102819.06
2023-02-14T12:29:19.398Z,102826.00
2023-02-14T12:31:47.971Z,102813.91
2023-02-14T12:34:16.765Z,102799.47
2023-02-14T12:37:10.105Z,102788.31
2023-02-14T12:39:47.870Z,102790.63
2023-02-14T12:42:24.047Z,102785.66
2023-02-14T12:44:55.671Z,102780.13
2023-02-14T12:47:26.196Z,102768.66
2023-02-14T12:50:18.592Z,102787.28
2023-02-14T12:53:06.273Z,102777.91
2023-02-14T12:55:50.719Z,102781.03
2023-02-14T12:58:32.448Z,102781.00
2023-02-14T13:01:06.898Z,102770.13
2023-02-14T13:03:59.131Z,102772.69
2023-02-14T13:06:30.317Z,102769.78
2023-02-14T13:09:18.403Z,102753.50
2023-02-14T13:11:55.548Z,102751.44
2023-02-14T13:14:35.677Z,102744.50
2023-02-14T13:17:06.406Z,102702.47
2023-02-14T13:19:36.563Z,102738.16
2023-02-14T13:22:05.158Z,102702.94
2023-02-14T13:24:35.758Z,102733.75
2023-02-14T13:27:05.841Z,102723.97
2023-02-14T13:29:35.649Z,102724.44
2023-02-14T13:34:32.759Z,102670.91
2023-02-14T13:37:00.958Z,102712.88
2023-02-14T13:39:32.901Z,102731.97
2023-02-14T13:42:05.546Z,102712.13
2023-02-14T13:44:47.108Z,102721.09
2023-02-14T13:47:19.399Z,102708.06
2023-02-14T13:49:48.846Z,102704.41
2023-02-14T13:52:16.958Z,102703.72
2023-02-14T13:54:45.978Z,102689.88
2023-02-14T13:57:34.049Z,102682.53
2023-02-14T14:00:38.538Z,102689.78
2023-02-14T14:03:06.672Z,102636.63
2023-02-14T14:06:06.025Z,102680.41
2023-02-14T14:08:56.708Z,102679.50
2023-02-14T14:11:59.641Z,102673.72
2023-02-14T14:14:39.831Z,102671.25
2023-02-14T14:17:21.926Z,102665.63
2023-02-14T14:19:52.411Z,102668.44
2023-02-14T14:22:20.914Z,102666.31
2023-02-14T14:24:59.801Z,102665.69
2023-02-14T14:27:30.767Z,102649.13
2023-02-14T14:30:01.113Z,102639.09
2023-02-14T14:32:30.687Z,102648.16
2023-02-14T14:34:59.392Z,102646.19
2023-02-14T14:37:28.532Z,102645.22
2023-02-14T14:39:57.387Z,102634.69
2023-02-14T14:42:25.926Z,102637.31
2023-02-14T14:44:55.364Z,102641.66
2023-02-14T14:47:25.506Z,102639.38
2023-02-14T14:49:54.032Z,102634.03
2023-02-14T14:52:32.422Z,102639.47
2023-02-14T14:55:00.310Z,102639.69
2023-02-14T14:57:28.192Z,102639.47
2023-02-14T15:00:09.371Z,102635.06
2023-02-14T15:02:38.779Z,102628.13
2023-02-14T15:05:17.703Z,102623.56
2023-02-14T15:07:48.414Z,102593.81
2023-02-14T15:10:24.391Z,102623.44
2023-02-14T15:13:09.952Z,102617.69
2023-02-14T15:15:38.202Z,102616.81
2023-02-14T15:18:08.340Z,102616.69
2023-02-14T15:20:36.939Z,102611.06
2023-02-14T15:23:04.977Z,102607.81
2023-02-14T15:25:33.711Z,102607.22
2023-02-14T15:28:01.706Z,102600.69
2023-02-14T15:30:34.223Z,102574.50
2023-02-14T15:33:02.381Z,102593.41
2023-02-14T15:35:32.603Z,102594.38
2023-02-14T15:38:02.692Z,102596.06
2023-02-14T15:40:32.325Z,102590.31
2023-02-14T15:43:03.464Z,102567.69
2023-02-14T15:45:31.871Z,102585.00
2023-02-14T15:48:01.325Z,102589.97
2023-02-14T15:50:31.894Z,102590.75
2023-02-14T15:53:03.978Z,102578.22
2023-02-14T15:55:32.131Z,102580.66
2023-02-14T15:58:02.267Z,102585.84
2023-02-14T16:00:31.720Z,102573.03
2023-02-14T16:03:00.836Z,102570.28
2023-02-14T16:05:28.868Z,102575.97
2023-02-14T16:08:03.658Z,102571.13
2023-02-14T16:10:33.172Z,102576.06
2023-02-14T16:13:02.537Z,102572.88
2023-02-14T16:15:31.882Z,102575.06
2023-02-14T16:18:01.108Z,102575.41
2023-02-14T16:20:31.969Z,102573.19
2023-02-14T16:23:26.203Z,102574.38
2023-02-14T16:25:54.374Z,102574.78
2023-02-14T16:28:22.962Z,102572.41
2023-02-14T16:30:55.281Z,102578.09
2023-02-14T16:33:24.276Z,102582.88
2023-02-14T16:35:52.400Z,102577.06
2023-02-14T16:38:21.890Z,102589.72
2023-02-14T16:40:50.677Z,102577.59
2023-02-14T16:43:19.980Z,102564.84
2023-02-14T16:45:48.135Z,102580.97
2023-02-14T16:48:16.883Z,102578.44
2023-02-14T16:50:45.067Z,102583.06
2023-02-14T16:53:26.154Z,102587.81
2023-02-14T16:55:55.092Z,102582.88
2023-02-14T16:58:23.382Z,102592.91
2023-02-14T17:00:51.248Z,102586.97
2023-02-14T17:03:19.223Z,102592.66
2023-02-14T17:05:47.586Z,102584.94
2023-02-14T17:08:16.295Z,102584.38
2023-02-14T17:10:46.033Z,102580.25
2023-02-14T17:13:13.915Z,102594.69
2023-02-14T17:15:41.895Z,102588.78
2023-02-14T17:18:11.331Z,102591.69
2023-02-14T17:20:39.212Z,102589.19
2023-02-14T17:23:07.129Z,102582.38
2023-02-14T17:25:35.363Z,102595.00
2023-02-14T17:28:05.148Z,102597.03
2023-02-14T17:30:33.052Z,102597.25
2023-02-14T17:33:01.025Z,102596.59
2023-02-14T17:35:28.990Z,102594.09
2023-02-14T17:37:56.946Z,102588.06
2023-02-14T17:40:25.334Z,102589.13
2023-02-14T17:42:53.331Z,102587.44
2023-02-14T17:45:22.615Z,102583.19
2023-02-14T17:47:50.913Z,102581.53
2023-02-14T17:50:19.001Z,102580.75
2023-02-14T17:52:46.966Z,102598.63
2023-02-14T17:55:15.823Z,102566.16
2023-02-14T17:57:43.806Z,102586.44
2023-02-14T18:00:14.153Z,102593.66
2023-02-14T18:02:43.422Z,102591.97
2023-02-14T18:05:12.317Z,102584.13
2023-02-14T18:07:40.264Z,102586.78
2023-02-14T18:10:08.837Z,102583.41
2023-02-14T18:12:36.755Z,102597.66
2023-02-14T18:15:05.612Z,102586.13
2023-02-14T18:17:33.526Z,102596.81
2023-02-14T18:20:03.369Z,102572.22
2023-02-14T18:22:31.294Z,102588.13
2023-02-14T18:24:59.176Z,102589.09
2023-02-14T18:27:27.485Z,102591.84
2023-02-14T18:29:55.463Z,102584.78
2023-02-14T18:32:23.380Z,102584.03
2023-02-14T18:34:52.440Z,102580.56
2023-02-14T18:37:22.190Z,102585.97
2023-02-14T18:39:50.057Z,102580.78
2023-02-14T18:42:17.950Z,102573.88
2023-02-14T18:44:45.883Z,102587.16
2023-02-14T18:47:13.794Z,102595.94
2023-02-14T18:49:41.710Z,102596.91
2023-02-14T18:52:09.622Z,102589.00
2023-02-14T18:54:39.660Z,102600.59
2023-02-14T18:57:08.229Z,102581.22
2023-02-14T18:59:36.111Z,102594.50
2023-02-14T19:02:04.023Z,102592.81
2023-02-14T19:04:32.230Z,102545.47
2023-02-14T19:07:00.320Z,102591.19
2023-02-14T19:09:29.500Z,102592.16
2023-02-14T19:12:00.142Z,102586.81
2023-02-14T19:14:28.212Z,102594.00
2023-02-14T19:16:56.061Z,102583.47
2023-02-14T19:19:24.093Z,102580.75
2023-02-14T19:21:52.113Z,102585.28
2023-02-14T19:24:21.158Z,102580.91
2023-02-14T19:26:49.405Z,102580.09
2023-02-14T19:29:20.170Z,102579.25
2023-02-14T19:31:49.568Z,102582.81
2023-02-14T19:34:18.166Z,102577.50
2023-02-14T19:36:46.228Z,102557.31
2023-02-14T19:39:14.149Z,102586.41
2023-02-14T19:41:42.016Z,102571.38
2023-02-14T19:44:10.445Z,102582.91
2023-02-14T19:46:39.917Z,102580.28
2023-02-14T19:49:07.859Z,102579.47
2023-02-14T19:51:36.346Z,102580.38
2023-02-14T19:54:07.134Z,102576.88
2023-02-14T19:56:36.579Z,102575.16
2023-02-14T19:59:07.830Z,102559.34
2023-02-14T20:01:36.899Z,102560.19
2023-02-14T20:04:07.464Z,102565.56
2023-02-14T20:06:35.426Z,102562.13
2023-02-14T20:09:03.685Z,102558.69
2023-02-14T20:11:35.540Z,102544.53
2023-02-14T20:14:03.725Z,102551.69
2023-02-14T20:16:32.831Z,102559.75
2023-02-14T20:19:02.438Z,102524.53
2023-02-14T20:21:31.876Z,102550.97
2023-02-14T20:24:00.811Z,102545.66
2023-02-14T20:26:28.933Z,102544.00
2023-02-14T20:28:56.957Z,102548.44
2023-02-14T20:31:25.027Z,102547.66
2023-02-14T20:33:53.029Z,102551.19
2023-02-14T20:36:21.040Z,102547.75
2023-02-14T20:38:54.524Z,102548.59
2023-02-14T20:41:22.439Z,102552.13
2023-02-14T20:43:50.339Z,102541.59
2023-02-14T20:46:18.216Z,102541.59
2023-02-14T20:48:46.470Z,102554.91
2023-02-14T20:51:15.284Z,102554.94
2023-02-14T20:53:43.230Z,102554.09
2023-02-14T20:56:12.734Z,102558.56
2023-02-14T20:58:40.872Z,102568.31
2023-02-14T21:01:09.085Z,102563.03
2023-02-14T21:03:37.402Z,102566.66
2023-02-14T21:06:05.684Z,102563.13
2023-02-14T21:08:33.616Z,102563.19
2023-02-14T21:11:01.909Z,102559.69
2023-02-14T21:13:31.446Z,102556.19
2023-02-14T21:16:03.183Z,102561.56
2023-02-14T21:18:31.191Z,102557.19
2023-02-14T21:21:05.088Z,102561.66
2023-02-14T21:23:33.003Z,102553.72
2023-02-14T21:28:28.973Z,102552.03
2023-02-14T21:31:05.166Z,102540.56
2023-02-14T21:33:33.458Z,102538.88
2023-02-14T21:36:07.032Z,102536.28
2023-02-14T21:38:35.083Z,102536.38
2023-02-14T21:41:04.855Z,102528.47
2023-02-14T21:43:34.684Z,102524.06
2023-02-14T21:46:05.503Z,102527.63
2023-02-14T21:48:50.823Z,102523.25
2023-02-14T21:51:18.945Z,102518.88
2023-02-14T21:53:46.893Z,102521.53
2023-02-14T21:56:18.074Z,102520.63
2023-02-14T21:58:46.028Z,102519.75
2023-02-14T22:01:17.514Z,102510.13
2023-02-14T22:03:45.454Z,102515.41
2023-02-14T22:06:14.181Z,102510.13
2023-02-14T22:08:42.065Z,102503.09
2023-02-14T22:11:10.849Z,102503.09
2023-02-14T22:13:38.718Z,102508.41
2023-02-14T22:16:07.820Z,102502.22
2023-02-14T22:18:37.153Z,102493.38
2023-02-14T22:21:06.004Z,102491.63
2023-02-14T22:23:34.277Z,102488.06
2023-02-14T22:26:10.210Z,102495.16
2023-02-14T22:28:38.093Z,102483.66
2023-02-14T22:31:06.080Z,102481.06
2023-02-14T22:33:34.426Z,102416.81
2023-02-14T22:36:05.120Z,102478.38
2023-02-14T22:38:33.044Z,102470.44
2023-02-14T22:41:05.918Z,102479.28
2023-02-14T22:43:34.077Z,102475.75
2023-02-14T22:46:04.102Z,102474.81
2023-02-14T22:48:32.772Z,102471.25
2023-02-14T22:51:09.729Z,102466.81
2023-02-14T22:53:37.719Z,102460.66
2023-02-14T22:56:12.945Z,102459.78
2023-02-14T22:58:40.851Z,102463.34
2023-02-14T23:01:13.128Z,102461.56
2023-02-14T23:03:41.418Z,102462.41
2023-02-14T23:06:10.658Z,102458.91
2023-02-14T23:08:40.062Z,102471.28
2023-02-14T23:11:09.406Z,102467.75
2023-02-14T23:13:55.235Z,102471.28
2023-02-14T23:16:37.066Z,102464.22
2023-02-14T23:19:22.548Z,102472.16
2023-02-14T23:21:57.709Z,102470.41
2023-02-14T23:24:25.589Z,102458.91
2023-02-14T23:26:55.178Z,102452.75
2023-02-14T23:29:23.168Z,102446.56
2023-02-14T23:31:51.261Z,102425.47
2023-02-14T23:34:19.311Z,102443.94
2023-02-14T23:36:47.176Z,102445.72
2023-02-14T23:39:16.413Z,102452.78
2023-02-14T23:41:50.255Z,102450.13
2023-02-14T23:44:19.242Z,102449.22
2023-02-14T23:46:47.432Z,102447.44
2023-02-14T23:49:15.430Z,102440.41
2023-02-14T23:51:43.273Z,102449.19
2023-02-14T23:54:11.277Z,102450.06
2023-02-14T23:56:40.726Z,102442.97
2023-02-14T23:59:08.985Z,102438.53
